sensor_id;sensor_type;location;lat;lon;timestamp;temperature;humidity
20590;DHT22;10453;50.810;12.540;2022-09-30T00:00:18;8.70;99.90
20590;DHT22;10453;50.810;12.540;2022-09-30T00:04:36;8.60;99.90
20590;DHT22;10453;50.810;12.540;2022-09-30T00:08:53;8.50;99.90
20590;DHT22;10453;50.810;12.540;2022-09-30T00:13:11;8.60;99.90
20590;DHT22;10453;50.810;12.540;2022-09-30T00:17:28;8.60;99.90
20590;DHT22;10453;50.810;12.540;2022-09-30T00:21:46;8.70;99.90
20590;DHT22;10453;50.810;12.540;2022-09-30T00:26:07;8.60;99.90
20590;DHT22;10453;50.810;12.540;2022-09-30T00:30:25;8.50;99.90
20590;DHT22;10453;50.810;12.540;2022-09-30T00:34:42;8.60;99.90
20590;DHT22;10453;50.810;12.540;2022-09-30T00:39:00;8.60;99.90
20590;DHT22;10453;50.810;12.540;2022-09-30T00:43:38;8.70;99.90
20590;DHT22;10453;50.810;12.540;2022-09-30T00:48:05;8.70;99.90
20590;DHT22;10453;50.810;12.540;2022-09-30T00:52:24;8.70;99.90
20590;DHT22;10453;50.810;12.540;2022-09-30T00:56:46;8.70;99.90
20590;DHT22;10453;50.810;12.540;2022-09-30T01:01:04;8.70;99.90
20590;DHT22;10453;50.810;12.540;2022-09-30T01:05:24;8.70;99.90
20590;DHT22;10453;50.810;12.540;2022-09-30T01:09:43;8.70;99.90
20590;DHT22;10453;50.810;12.540;2022-09-30T01:14:16;8.80;99.90
20590;DHT22;10453;50.810;12.540;2022-09-30T01:37:25;8.70;99.90
20590;DHT22;10453;50.810;12.540;2022-09-30T01:42:18;8.70;99.90
20590;DHT22;10453;50.810;12.540;2022-09-30T01:46:43;8.60;99.90
20590;DHT22;10453;50.810;12.540;2022-09-30T01:55:44;8.50;99.90
20590;DHT22;10453;50.810;12.540;2022-09-30T02:00:06;8.50;99.90
20590;DHT22;10453;50.810;12.540;2022-09-30T02:04:28;8.50;99.90
20590;DHT22;10453;50.810;12.540;2022-09-30T02:08:52;8.50;99.90
20590;DHT22;10453;50.810;12.540;2022-09-30T02:13:20;8.50;99.90
20590;DHT22;10453;50.810;12.540;2022-09-30T02:17:45;8.50;99.90
20590;DHT22;10453;50.810;12.540;2022-09-30T02:22:17;8.50;99.90
20590;DHT22;10453;50.810;12.540;2022-09-30T02:26:39;8.50;99.90
20590;DHT22;10453;50.810;12.540;2022-09-30T02:31:00;8.60;99.90
20590;DHT22;10453;50.810;12.540;2022-09-30T02:35:20;8.60;99.90
20590;DHT22;10453;50.810;12.540;2022-09-30T02:44:39;8.70;99.90
20590;DHT22;10453;50.810;12.540;2022-09-30T02:49:10;8.60;99.90
20590;DHT22;10453;50.810;12.540;2022-09-30T02:54:47;8.60;99.90
20590;DHT22;10453;50.810;12.540;2022-09-30T02:59:06;8.70;99.90
20590;DHT22;10453;50.810;12.540;2022-09-30T03:03:39;8.70;99.90
20590;DHT22;10453;50.810;12.540;2022-09-30T03:07:57;8.70;99.90
20590;DHT22;10453;50.810;12.540;2022-09-30T03:12:37;8.80;99.90
20590;DHT22;10453;50.810;12.540;2022-09-30T03:22:04;8.80;99.90
20590;DHT22;10453;50.810;12.540;2022-09-30T03:31:40;8.80;99.90
20590;DHT22;10453;50.810;12.540;2022-09-30T03:36:08;8.70;99.90
20590;DHT22;10453;50.810;12.540;2022-09-30T03:49:42;8.50;99.90
20590;DHT22;10453;50.810;12.540;2022-09-30T03:54:09;8.30;99.90
20590;DHT22;10453;50.810;12.540;2022-09-30T03:58:26;8.20;99.90
20590;DHT22;10453;50.810;12.540;2022-09-30T04:02:43;8.10;99.90
20590;DHT22;10453;50.810;12.540;2022-09-30T04:07:01;8.10;99.90
20590;DHT22;10453;50.810;12.540;2022-09-30T04:11:19;8.20;99.90
20590;DHT22;10453;50.810;12.540;2022-09-30T04:15:37;8.20;99.90
20590;DHT22;10453;50.810;12.540;2022-09-30T04:19:54;8.20;99.90
20590;DHT22;10453;50.810;12.540;2022-09-30T04:24:12;8.30;99.90
20590;DHT22;10453;50.810;12.540;2022-09-30T04:28:29;8.30;99.90
20590;DHT22;10453;50.810;12.540;2022-09-30T04:32:46;8.30;99.90
20590;DHT22;10453;50.810;12.540;2022-09-30T04:37:03;8.40;99.90
20590;DHT22;10453;50.810;12.540;2022-09-30T04:41:27;8.40;99.90
20590;DHT22;10453;50.810;12.540;2022-09-30T04:45:45;8.30;99.90
20590;DHT22;10453;50.810;12.540;2022-09-30T04:50:04;8.30;99.90
20590;DHT22;10453;50.810;12.540;2022-09-30T04:54:21;8.20;99.90
20590;DHT22;10453;50.810;12.540;2022-09-30T04:58:39;8.10;99.90
20590;DHT22;10453;50.810;12.540;2022-09-30T05:02:56;8.10;99.90
20590;DHT22;10453;50.810;12.540;2022-09-30T05:07:13;8.20;99.90
20590;DHT22;10453;50.810;12.540;2022-09-30T05:11:31;8.20;99.90
20590;DHT22;10453;50.810;12.540;2022-09-30T05:15:48;8.20;99.90
20590;DHT22;10453;50.810;12.540;2022-09-30T05:20:06;8.20;99.90
20590;DHT22;10453;50.810;12.540;2022-09-30T05:24:27;8.20;99.90
20590;DHT22;10453;50.810;12.540;2022-09-30T05:28:46;8.30;99.90
20590;DHT22;10453;50.810;12.540;2022-09-30T05:33:03;8.30;99.90
20590;DHT22;10453;50.810;12.540;2022-09-30T05:37:21;8.20;99.90
20590;DHT22;10453;50.810;12.540;2022-09-30T05:41:38;8.20;99.90
20590;DHT22;10453;50.810;12.540;2022-09-30T05:45:56;8.30;99.90
20590;DHT22;10453;50.810;12.540;2022-09-30T05:50:13;8.20;99.90
20590;DHT22;10453;50.810;12.540;2022-09-30T05:54:30;8.20;99.90
20590;DHT22;10453;50.810;12.540;2022-09-30T05:58:48;8.10;99.90
20590;DHT22;10453;50.810;12.540;2022-09-30T06:03:06;8.00;99.90
20590;DHT22;10453;50.810;12.540;2022-09-30T06:07:24;8.00;99.90
20590;DHT22;10453;50.810;12.540;2022-09-30T06:11:41;7.90;99.90
20590;DHT22;10453;50.810;12.540;2022-09-30T06:16:00;7.90;99.90
20590;DHT22;10453;50.810;12.540;2022-09-30T06:20:18;7.80;99.90
20590;DHT22;10453;50.810;12.540;2022-09-30T06:24:35;7.80;99.90
20590;DHT22;10453;50.810;12.540;2022-09-30T06:28:53;7.70;99.90
20590;DHT22;10453;50.810;12.540;2022-09-30T06:33:12;7.60;99.90
20590;DHT22;10453;50.810;12.540;2022-09-30T06:37:30;7.60;99.90
20590;DHT22;10453;50.810;12.540;2022-09-30T06:41:47;7.60;99.90
20590;DHT22;10453;50.810;12.540;2022-09-30T06:46:05;7.80;99.90
20590;DHT22;10453;50.810;12.540;2022-09-30T06:50:35;7.80;99.90
20590;DHT22;10453;50.810;12.540;2022-09-30T06:54:53;7.90;99.90
20590;DHT22;10453;50.810;12.540;2022-09-30T06:59:14;8.00;99.90
20590;DHT22;10453;50.810;12.540;2022-09-30T07:03:35;8.10;99.90
20590;DHT22;10453;50.810;12.540;2022-09-30T07:07:52;8.20;99.90
20590;DHT22;10453;50.810;12.540;2022-09-30T07:12:10;8.30;99.90
20590;DHT22;10453;50.810;12.540;2022-09-30T07:16:27;8.40;99.90
20590;DHT22;10453;50.810;12.540;2022-09-30T07:20:48;8.70;99.90
20590;DHT22;10453;50.810;12.540;2022-09-30T07:25:05;8.90;99.90
20590;DHT22;10453;50.810;12.540;2022-09-30T07:29:23;9.10;99.90
20590;DHT22;10453;50.810;12.540;2022-09-30T07:33:40;9.30;99.90
20590;DHT22;10453;50.810;12.540;2022-09-30T07:37:58;9.60;99.90
20590;DHT22;10453;50.810;12.540;2022-09-30T07:42:17;9.90;99.90
20590;DHT22;10453;50.810;12.540;2022-09-30T07:46:40;10.20;99.90
20590;DHT22;10453;50.810;12.540;2022-09-30T07:50:57;10.50;99.90
20590;DHT22;10453;50.810;12.540;2022-09-30T07:55:15;10.70;99.90
20590;DHT22;10453;50.810;12.540;2022-09-30T07:59:35;11.00;99.90
20590;DHT22;10453;50.810;12.540;2022-09-30T08:03:55;11.30;99.90
20590;DHT22;10453;50.810;12.540;2022-09-30T08:08:14;11.60;99.90
20590;DHT22;10453;50.810;12.540;2022-09-30T08:12:31;12.10;99.90
20590;DHT22;10453;50.810;12.540;2022-09-30T08:16:48;12.30;99.90
20590;DHT22;10453;50.810;12.540;2022-09-30T08:21:06;12.50;99.90
20590;DHT22;10453;50.810;12.540;2022-09-30T08:25:24;12.80;99.90
20590;DHT22;10453;50.810;12.540;2022-09-30T08:29:42;13.20;99.90
20590;DHT22;10453;50.810;12.540;2022-09-30T08:34:11;13.10;99.90
20590;DHT22;10453;50.810;12.540;2022-09-30T08:38:28;13.30;99.90
20590;DHT22;10453;50.810;12.540;2022-09-30T08:43:21;13.30;99.90
20590;DHT22;10453;50.810;12.540;2022-09-30T08:52:19;13.60;99.90
20590;DHT22;10453;50.810;12.540;2022-09-30T08:56:53;14.00;99.90
20590;DHT22;10453;50.810;12.540;2022-09-30T09:01:35;14.30;99.90
20590;DHT22;10453;50.810;12.540;2022-09-30T09:06:15;14.20;99.90
20590;DHT22;10453;50.810;12.540;2022-09-30T09:10:45;14.30;99.90
20590;DHT22;10453;50.810;12.540;2022-09-30T09:15:44;14.60;99.90
20590;DHT22;10453;50.810;12.540;2022-09-30T09:20:19;14.50;99.90
20590;DHT22;10453;50.810;12.540;2022-09-30T09:24:46;14.70;99.90
20590;DHT22;10453;50.810;12.540;2022-09-30T09:34:00;15.70;99.90
20590;DHT22;10453;50.810;12.540;2022-09-30T09:38:40;15.60;99.90
20590;DHT22;10453;50.810;12.540;2022-09-30T09:47:52;16.10;99.90
20590;DHT22;10453;50.810;12.540;2022-09-30T09:56:31;17.70;99.90
20590;DHT22;10453;50.810;12.540;2022-09-30T10:00:49;18.80;99.90
20590;DHT22;10453;50.810;12.540;2022-09-30T10:05:22;19.10;99.90
20590;DHT22;10453;50.810;12.540;2022-09-30T10:09:42;19.50;98.10
20590;DHT22;10453;50.810;12.540;2022-09-30T10:14:00;20.30;97.90
20590;DHT22;10453;50.810;12.540;2022-09-30T10:22:41;19.60;93.20
20590;DHT22;10453;50.810;12.540;2022-09-30T10:26:58;20.20;92.50
20590;DHT22;10453;50.810;12.540;2022-09-30T10:31:24;20.30;90.00
20590;DHT22;10453;50.810;12.540;2022-09-30T10:36:07;20.80;90.20
20590;DHT22;10453;50.810;12.540;2022-09-30T10:40:28;20.70;85.50
20590;DHT22;10453;50.810;12.540;2022-09-30T10:44:55;20.30;87.60
20590;DHT22;10453;50.810;12.540;2022-09-30T10:54:00;19.50;92.10
20590;DHT22;10453;50.810;12.540;2022-09-30T10:58:48;20.40;84.10
20590;DHT22;10453;50.810;12.540;2022-09-30T11:03:21;19.20;84.40
20590;DHT22;10453;50.810;12.540;2022-09-30T11:07:56;20.70;85.90
20590;DHT22;10453;50.810;12.540;2022-09-30T11:12:27;20.90;88.10
20590;DHT22;10453;50.810;12.540;2022-09-30T11:16:54;21.30;89.10
20590;DHT22;10453;50.810;12.540;2022-09-30T11:21:41;22.20;80.00
20590;DHT22;10453;50.810;12.540;2022-09-30T11:26:08;22.10;84.30
20590;DHT22;10453;50.810;12.540;2022-09-30T11:35:45;22.40;73.30
20590;DHT22;10453;50.810;12.540;2022-09-30T11:40:30;22.90;69.90
20590;DHT22;10453;50.810;12.540;2022-09-30T11:49:44;21.70;74.60
20590;DHT22;10453;50.810;12.540;2022-09-30T11:54:20;21.80;75.60
20590;DHT22;10453;50.810;12.540;2022-09-30T11:58:46;22.10;72.60
20590;DHT22;10453;50.810;12.540;2022-09-30T12:03:14;19.80;74.50
20590;DHT22;10453;50.810;12.540;2022-09-30T12:07:39;19.70;78.80
20590;DHT22;10453;50.810;12.540;2022-09-30T12:12:09;20.50;79.40
20590;DHT22;10453;50.810;12.540;2022-09-30T12:16:34;20.70;74.30
20590;DHT22;10453;50.810;12.540;2022-09-30T12:20:56;20.60;77.00
20590;DHT22;10453;50.810;12.540;2022-09-30T12:25:35;18.50;76.50
20590;DHT22;10453;50.810;12.540;2022-09-30T12:30:01;17.90;80.80
20590;DHT22;10453;50.810;12.540;2022-09-30T12:35:05;19.30;80.10
20590;DHT22;10453;50.810;12.540;2022-09-30T12:49:00;19.20;79.50
20590;DHT22;10453;50.810;12.540;2022-09-30T12:53:27;18.00;79.20
20590;DHT22;10453;50.810;12.540;2022-09-30T12:57:47;18.40;80.20
20590;DHT22;10453;50.810;12.540;2022-09-30T13:02:06;19.80;74.40
20590;DHT22;10453;50.810;12.540;2022-09-30T13:06:26;19.50;80.40
20590;DHT22;10453;50.810;12.540;2022-09-30T13:10:46;18.70;81.70
20590;DHT22;10453;50.810;12.540;2022-09-30T13:19:48;18.60;79.70
20590;DHT22;10453;50.810;12.540;2022-09-30T13:24:07;18.40;82.40
20590;DHT22;10453;50.810;12.540;2022-09-30T13:28:26;18.00;78.90
20590;DHT22;10453;50.810;12.540;2022-09-30T13:37:42;17.30;79.60
20590;DHT22;10453;50.810;12.540;2022-09-30T13:42:20;17.00;84.00
20590;DHT22;10453;50.810;12.540;2022-09-30T13:46:50;16.90;86.00
20590;DHT22;10453;50.810;12.540;2022-09-30T13:51:11;17.10;89.40
20590;DHT22;10453;50.810;12.540;2022-09-30T13:55:43;17.20;87.20
20590;DHT22;10453;50.810;12.540;2022-09-30T14:00:12;17.20;87.70
20590;DHT22;10453;50.810;12.540;2022-09-30T14:05:05;17.10;85.90
20590;DHT22;10453;50.810;12.540;2022-09-30T14:09:42;16.90;85.60
20590;DHT22;10453;50.810;12.540;2022-09-30T14:14:13;16.80;90.40
20590;DHT22;10453;50.810;12.540;2022-09-30T14:23:18;16.50;87.50
20590;DHT22;10453;50.810;12.540;2022-09-30T14:27:43;16.70;90.50
20590;DHT22;10453;50.810;12.540;2022-09-30T14:32:11;16.90;90.10
20590;DHT22;10453;50.810;12.540;2022-09-30T14:36:29;17.10;90.70
20590;DHT22;10453;50.810;12.540;2022-09-30T14:40:51;16.80;90.70
20590;DHT22;10453;50.810;12.540;2022-09-30T14:45:31;16.60;87.40
20590;DHT22;10453;50.810;12.540;2022-09-30T14:49:48;16.70;91.30
20590;DHT22;10453;50.810;12.540;2022-09-30T14:54:15;16.30;91.00
20590;DHT22;10453;50.810;12.540;2022-09-30T14:58:42;16.30;90.00
20590;DHT22;10453;50.810;12.540;2022-09-30T15:02:59;16.30;90.60
20590;DHT22;10453;50.810;12.540;2022-09-30T15:07:17;16.10;91.80
20590;DHT22;10453;50.810;12.540;2022-09-30T15:11:34;15.90;91.10
20590;DHT22;10453;50.810;12.540;2022-09-30T15:15:56;15.70;97.40
20590;DHT22;10453;50.810;12.540;2022-09-30T15:20:33;15.40;99.90
20590;DHT22;10453;50.810;12.540;2022-09-30T15:24:52;15.20;99.90
20590;DHT22;10453;50.810;12.540;2022-09-30T15:29:11;15.00;99.90
20590;DHT22;10453;50.810;12.540;2022-09-30T15:33:28;15.00;99.90
20590;DHT22;10453;50.810;12.540;2022-09-30T15:37:49;15.30;99.90
20590;DHT22;10453;50.810;12.540;2022-09-30T15:42:07;15.60;99.90
20590;DHT22;10453;50.810;12.540;2022-09-30T15:46:25;15.70;99.90
20590;DHT22;10453;50.810;12.540;2022-09-30T15:50:48;15.50;99.90
20590;DHT22;10453;50.810;12.540;2022-09-30T15:55:34;15.40;99.90
20590;DHT22;10453;50.810;12.540;2022-09-30T16:00:00;15.00;99.90
20590;DHT22;10453;50.810;12.540;2022-09-30T16:04:24;14.60;99.90
20590;DHT22;10453;50.810;12.540;2022-09-30T16:08:44;14.50;99.90
20590;DHT22;10453;50.810;12.540;2022-09-30T16:13:03;14.40;99.90
20590;DHT22;10453;50.810;12.540;2022-09-30T16:17:38;14.30;99.90
20590;DHT22;10453;50.810;12.540;2022-09-30T16:22:01;14.10;99.90
20590;DHT22;10453;50.810;12.540;2022-09-30T16:26:21;13.80;99.90
20590;DHT22;10453;50.810;12.540;2022-09-30T16:30:43;13.70;99.90
20590;DHT22;10453;50.810;12.540;2022-09-30T16:35:02;13.50;99.90
20590;DHT22;10453;50.810;12.540;2022-09-30T16:39:20;13.40;99.90
20590;DHT22;10453;50.810;12.540;2022-09-30T16:43:37;13.30;99.90
20590;DHT22;10453;50.810;12.540;2022-09-30T16:47:56;13.00;99.90
20590;DHT22;10453;50.810;12.540;2022-09-30T16:52:14;12.70;99.90
20590;DHT22;10453;50.810;12.540;2022-09-30T16:56:31;12.60;99.90
20590;DHT22;10453;50.810;12.540;2022-09-30T17:00:48;12.40;99.90
20590;DHT22;10453;50.810;12.540;2022-09-30T17:05:08;12.20;99.90
20590;DHT22;10453;50.810;12.540;2022-09-30T17:09:28;12.00;99.90
20590;DHT22;10453;50.810;12.540;2022-09-30T17:13:45;11.80;99.90
20590;DHT22;10453;50.810;12.540;2022-09-30T17:18:06;11.60;99.90
20590;DHT22;10453;50.810;12.540;2022-09-30T17:22:24;11.60;99.90
20590;DHT22;10453;50.810;12.540;2022-09-30T17:26:41;11.50;99.90
20590;DHT22;10453;50.810;12.540;2022-09-30T17:30:59;11.30;99.90
20590;DHT22;10453;50.810;12.540;2022-09-30T17:35:17;11.20;99.90
20590;DHT22;10453;50.810;12.540;2022-09-30T17:39:34;11.10;99.90
20590;DHT22;10453;50.810;12.540;2022-09-30T17:43:51;10.90;99.90
20590;DHT22;10453;50.810;12.540;2022-09-30T17:48:09;10.70;99.90
20590;DHT22;10453;50.810;12.540;2022-09-30T17:52:27;10.70;99.90
20590;DHT22;10453;50.810;12.540;2022-09-30T17:56:44;10.70;99.90
20590;DHT22;10453;50.810;12.540;2022-09-30T18:01:08;10.70;99.90
20590;DHT22;10453;50.810;12.540;2022-09-30T18:05:26;10.60;99.90
20590;DHT22;10453;50.810;12.540;2022-09-30T18:09:43;10.60;99.90
20590;DHT22;10453;50.810;12.540;2022-09-30T18:14:01;10.50;99.90
20590;DHT22;10453;50.810;12.540;2022-09-30T18:18:18;10.60;99.90
20590;DHT22;10453;50.810;12.540;2022-09-30T18:22:35;10.50;99.90
20590;DHT22;10453;50.810;12.540;2022-09-30T18:26:53;10.40;99.90
20590;DHT22;10453;50.810;12.540;2022-09-30T18:31:10;10.40;99.90
20590;DHT22;10453;50.810;12.540;2022-09-30T18:35:35;10.20;99.90
20590;DHT22;10453;50.810;12.540;2022-09-30T18:39:53;10.00;99.90
20590;DHT22;10453;50.810;12.540;2022-09-30T18:44:10;9.90;99.90
20590;DHT22;10453;50.810;12.540;2022-09-30T18:48:28;9.70;99.90
20590;DHT22;10453;50.810;12.540;2022-09-30T18:52:45;9.60;99.90
20590;DHT22;10453;50.810;12.540;2022-09-30T18:57:02;9.50;99.90
20590;DHT22;10453;50.810;12.540;2022-09-30T19:01:20;9.40;99.90
20590;DHT22;10453;50.810;12.540;2022-09-30T19:05:38;9.40;99.90
20590;DHT22;10453;50.810;12.540;2022-09-30T19:09:55;9.40;99.90
20590;DHT22;10453;50.810;12.540;2022-09-30T19:14:13;9.30;99.90
20590;DHT22;10453;50.810;12.540;2022-09-30T19:18:31;9.10;99.90
20590;DHT22;10453;50.810;12.540;2022-09-30T19:22:49;9.10;99.90
20590;DHT22;10453;50.810;12.540;2022-09-30T19:27:10;9.10;99.90
20590;DHT22;10453;50.810;12.540;2022-09-30T19:31:27;9.10;99.90
20590;DHT22;10453;50.810;12.540;2022-09-30T19:35:45;9.10;99.90
20590;DHT22;10453;50.810;12.540;2022-09-30T19:40:02;9.20;99.90
20590;DHT22;10453;50.810;12.540;2022-09-30T19:44:37;9.00;99.90
20590;DHT22;10453;50.810;12.540;2022-09-30T19:48:54;8.90;99.90
20590;DHT22;10453;50.810;12.540;2022-09-30T19:53:12;8.80;99.90
20590;DHT22;10453;50.810;12.540;2022-09-30T19:57:44;8.60;99.90
20590;DHT22;10453;50.810;12.540;2022-09-30T20:02:01;8.40;99.90
20590;DHT22;10453;50.810;12.540;2022-09-30T20:06:19;8.30;99.90
20590;DHT22;10453;50.810;12.540;2022-09-30T20:10:38;8.20;99.90
20590;DHT22;10453;50.810;12.540;2022-09-30T20:14:56;8.10;99.90
20590;DHT22;10453;50.810;12.540;2022-09-30T20:19:31;8.20;99.90
20590;DHT22;10453;50.810;12.540;2022-09-30T20:23:49;8.20;99.90
20590;DHT22;10453;50.810;12.540;2022-09-30T20:28:08;8.20;99.90
20590;DHT22;10453;50.810;12.540;2022-09-30T20:32:25;8.10;99.90
20590;DHT22;10453;50.810;12.540;2022-09-30T20:36:47;7.90;99.90
20590;DHT22;10453;50.810;12.540;2022-09-30T20:41:04;7.90;99.90
20590;DHT22;10453;50.810;12.540;2022-09-30T20:45:22;7.80;99.90
20590;DHT22;10453;50.810;12.540;2022-09-30T20:49:40;7.80;99.90
20590;DHT22;10453;50.810;12.540;2022-09-30T20:53:58;7.80;99.90
20590;DHT22;10453;50.810;12.540;2022-09-30T20:58:16;7.70;99.90
20590;DHT22;10453;50.810;12.540;2022-09-30T21:02:34;7.70;99.90
20590;DHT22;10453;50.810;12.540;2022-09-30T21:06:51;7.70;99.90
20590;DHT22;10453;50.810;12.540;2022-09-30T21:11:09;7.60;99.90
20590;DHT22;10453;50.810;12.540;2022-09-30T21:15:27;7.60;99.90
20590;DHT22;10453;50.810;12.540;2022-09-30T21:19:44;7.70;99.90
20590;DHT22;10453;50.810;12.540;2022-09-30T21:24:01;7.80;99.90
20590;DHT22;10453;50.810;12.540;2022-09-30T21:28:19;7.80;99.90
20590;DHT22;10453;50.810;12.540;2022-09-30T21:32:44;7.80;99.90
20590;DHT22;10453;50.810;12.540;2022-09-30T21:37:01;7.80;99.90
20590;DHT22;10453;50.810;12.540;2022-09-30T21:41:19;7.70;99.90
20590;DHT22;10453;50.810;12.540;2022-09-30T21:45:36;7.60;99.90
20590;DHT22;10453;50.810;12.540;2022-09-30T21:49:53;7.50;99.90
20590;DHT22;10453;50.810;12.540;2022-09-30T21:54:11;7.50;99.90
20590;DHT22;10453;50.810;12.540;2022-09-30T21:58:31;7.50;99.90
20590;DHT22;10453;50.810;12.540;2022-09-30T22:02:48;7.80;99.90
20590;DHT22;10453;50.810;12.540;2022-09-30T22:07:06;8.00;99.90
20590;DHT22;10453;50.810;12.540;2022-09-30T22:11:23;7.90;99.90
20590;DHT22;10453;50.810;12.540;2022-09-30T22:15:42;7.60;99.90
20590;DHT22;10453;50.810;12.540;2022-09-30T22:20:00;7.40;99.90
20590;DHT22;10453;50.810;12.540;2022-09-30T22:24:20;7.20;99.90
20590;DHT22;10453;50.810;12.540;2022-09-30T22:28:38;7.00;99.90
20590;DHT22;10453;50.810;12.540;2022-09-30T22:32:55;7.00;99.90
20590;DHT22;10453;50.810;12.540;2022-09-30T22:37:31;6.80;99.90
20590;DHT22;10453;50.810;12.540;2022-09-30T22:42:07;6.90;99.90
20590;DHT22;10453;50.810;12.540;2022-09-30T22:46:24;6.90;99.90
20590;DHT22;10453;50.810;12.540;2022-09-30T22:50:42;6.80;99.90
20590;DHT22;10453;50.810;12.540;2022-09-30T22:55:00;6.80;99.90
20590;DHT22;10453;50.810;12.540;2022-09-30T22:59:19;6.60;99.90
20590;DHT22;10453;50.810;12.540;2022-09-30T23:03:36;6.40;99.90
20590;DHT22;10453;50.810;12.540;2022-09-30T23:07:55;6.30;99.90
20590;DHT22;10453;50.810;12.540;2022-09-30T23:12:12;6.30;99.90
20590;DHT22;10453;50.810;12.540;2022-09-30T23:16:30;6.30;99.90
20590;DHT22;10453;50.810;12.540;2022-09-30T23:20:58;6.30;99.90
20590;DHT22;10453;50.810;12.540;2022-09-30T23:25:15;6.20;99.90
20590;DHT22;10453;50.810;12.540;2022-09-30T23:29:33;6.10;99.90
20590;DHT22;10453;50.810;12.540;2022-09-30T23:33:52;6.00;99.90
20590;DHT22;10453;50.810;12.540;2022-09-30T23:38:10;6.00;99.90
20590;DHT22;10453;50.810;12.540;2022-09-30T23:42:27;5.90;99.90
20590;DHT22;10453;50.810;12.540;2022-09-30T23:46:47;5.90;99.90
20590;DHT22;10453;50.810;12.540;2022-09-30T23:51:24;6.00;99.90
20590;DHT22;10453;50.810;12.540;2022-09-30T23:55:41;5.90;99.90
20590;DHT22;10453;50.810;12.540;2022-09-30T23:59:58;5.90;99.90
